Latest Weather Observations for Keith West

IDS60801

Issued at 9:02 am CDT Wednesday 28 January 2015 (issued every 30 minutes, with the page automatically refreshed every 10 minutes)

About weather observations | Map of weather stations | Latest weather observations for SA | Other Formats
Station Details ID: 025557 Name: MUNKORA Lat: -36.11 Lon: 140.33 Height: 27.0 m
Data from the previous 72 hours. | See also: Recent months for locations in South Australia
Date/Time
CDT
Temp
°C
App
Temp
°C
Dew
Point
Rel
Hum
%
Delta-T
°C
Wind Press
QNH
hPa
Press
MSL
hPa
Rain
since 9 am
mm
Dir
 
Spd
km/h
Gust
km/h
Spd
kts
Gust
kts
28/09:00am 16.3 9.9 7.0 54 4.6 SE 30 39 16 21 1018.4 1018.3 0.0
28/08:44am 16.0 10.4 7.2 56 4.4 SE 26 46 14 25 1018.4 1018.3 0.0
28/08:30am 14.5 11.5 7.8 64 3.3 SSE 13 20 7 11 1018.5 1018.4 0.0
28/08:00am 12.9 9.9 7.6 70 2.6 SSE 13 19 7 10 1018.3 1018.2 0.0
28/07:30am 11.0 8.7 7.5 79 1.7 SSE 9 13 5 7 1017.8 1017.7 0.0
28/07:00am 9.6 7.2 7.0 84 1.2 SSE 9 15 5 8 1017.5 1017.4 0.0
28/06:30am 8.4 5.5 6.5 88 0.9 S 11 13 6 7 1017.2 1017.1 0.0
28/06:00am 8.7 6.1 6.3 85 1.1 S 9 13 5 7 1017.0 1016.9 0.0
28/05:30am 9.2 6.3 6.6 84 1.2 S 11 15 6 8 1016.8 1016.7 0.0
28/05:00am 9.5 6.7 6.8 83 1.3 SSE 11 15 6 8 1016.7 1016.6 0.0
28/04:30am 9.9 7.1 6.8 81 1.5 SSE 11 15 6 8 1016.7 1016.6 0.0
28/04:00am 10.5 7.3 6.8 78 1.7 SSE 13 17 7 9 1017.0 1016.9 0.0
28/03:30am 10.9 7.4 7.0 77 1.9 SSE 15 20 8 11 1017.1 1017.0 0.0
28/03:00am 11.5 7.5 6.8 73 2.2 SSE 17 24 9 13 1017.2 1017.1 0.0
28/02:30am 11.9 8.3 6.8 71 2.4 SSE 15 20 8 11 1017.3 1017.2 0.0
28/02:00am 12.1 9.2 6.4 68 2.7 SSE 11 17 6 9 1017.5 1017.4 0.0
28/01:30am 12.4 9.1 6.2 66 2.9 SSE 13 19 7 10 1017.8 1017.7 0.0
28/01:00am 12.9 9.6 6.3 64 3.1 SSE 13 17 7 9 1017.7 1017.6 0.0
28/12:30am 13.2 9.9 6.3 63 3.3 SSE 13 19 7 10 1017.8 1017.7 0.0
28/12:00am 13.4 10.5 6.3 62 3.4 SSE 11 17 6 9 1018.0 1017.9 0.0
 
Date/Time
CDT
Temp
°C
App
Temp
°C
Dew
Point
Rel
Hum
%
Delta-T
°C
Wind Press
QNH
hPa
Press
MSL
hPa
Rain
since 9 am
mm
Dir
 
Spd
km/h
Gust
km/h
Spd
kts
Gust
kts
27/11:30pm 14.1 10.4 6.5 60 3.7 SSE 15 20 8 11 1017.8 1017.7 0.0
27/11:00pm 14.6 10.5 6.2 57 4.0 SSE 17 22 9 12 1017.8 1017.7 0.0
27/10:30pm 15.1 11.0 6.4 56 4.2 SSE 17 22 9 12 1017.7 1017.6 0.0
27/10:00pm 15.5 11.5 6.8 56 4.3 SSE 17 24 9 13 1017.5 1017.4 0.0
27/09:30pm 16.2 12.2 6.6 53 4.7 SSE 17 24 9 13 1017.3 1017.2 0.0
27/09:00pm 16.9 13.2 6.4 50 5.1 SSE 15 22 8 12 1016.8 1016.7 0.0
27/08:30pm 18.1 12.6 6.0 45 5.9 SSE 24 32 13 17 1016.5 1016.4 0.0
27/08:00pm 19.2 13.8 6.3 43 6.4 SSE 24 39 13 21 1016.1 1016.0 0.0
27/07:30pm 20.6 14.6 5.4 37 7.5 SSE 26 41 14 22 1015.6 1015.5 0.0
27/07:00pm 21.6 15.2 5.1 34 8.2 SSE 28 39 15 21 1015.3 1015.2 0.0
27/06:30pm 22.4 15.9 4.9 32 8.7 SE 28 39 15 21 1015.0 1014.9 0.0
27/06:00pm 22.7 17.3 4.7 31 8.9 SE 22 32 12 17 1014.8 1014.7 0.0
27/05:30pm 22.5 16.6 4.1 30 9.0 SSE 24 35 13 19 1014.8 1014.7 0.0
27/05:00pm 23.3 16.7 4.3 29 9.4 SSE 28 48 15 26 1014.6 1014.5 0.0
27/04:55pm 23.8 17.2 4.2 28 9.7 SSE 28 48 15 26 1014.6 1014.5 0.0
27/04:30pm 24.0 18.2 4.4 28 9.7 SSE 24 33 13 18 1014.7 1014.6 0.0
27/04:00pm 24.1 18.2 4.0 27 9.9 SSE 24 35 13 19 1015.1 1015.0 0.0
27/03:30pm 23.8 18.4 4.7 29 9.5 SSE 22 33 12 18 1015.1 1015.0 0.0
27/03:00pm 24.3 18.6 5.1 29 9.7 S 24 39 13 21 1015.4 1015.3 0.0
27/02:30pm 23.8 18.5 5.2 30 9.3 SSE 22 35 12 19 1015.9 1015.8 0.0
27/02:00pm 22.6 17.2 4.6 31 8.9 S 22 39 12 21 1016.2 1016.1 0.0
27/01:30pm 21.6 15.5 4.7 33 8.3 S 26 37 14 20 1016.4 1016.3 0.0
27/01:00pm 21.8 15.8 5.3 34 8.2 S 26 37 14 20 1016.8 1016.7 0.0
27/12:30pm 21.2 15.8 4.7 34 8.1 SSE 22 32 12 17 1017.2 1017.1 0.0
27/12:00pm 20.8 15.2 5.2 36 7.7 SSE 24 41 13 22 1017.5 1017.4 0.0
27/11:30am 19.1 13.9 5.6 41 6.6 SSE 22 35 12 19 1017.9 1017.8 0.0
27/11:00am 18.5 12.9 5.4 42 6.4 SSE 24 35 13 19 1018.3 1018.2 0.0
27/10:30am 18.9 14.1 5.7 42 6.5 SSE 20 33 11 18 1018.5 1018.4 0.0
27/10:00am 17.8 13.0 5.4 44 6.0 SE 20 32 11 17 1018.7 1018.6 0.0
27/09:30am 16.5 12.0 6.3 51 5.0 SSE 19 26 10 14 1018.9 1018.8 0.0
27/09:00am 15.6 12.0 6.9 56 4.3 SSE 15 24 8 13 1019.2 1019.1 0.0
27/08:30am 14.0 11.2 6.8 62 3.5 SSE 11 15 6 8 1019.0 1018.9 0.0
27/08:00am 11.9 9.4 6.6 70 2.5 S 9 13 5 7 1018.8 1018.7 0.0
27/07:30am 10.1 8.1 6.4 78 1.7 SSW 6 7 3 4 1018.5 1018.4 0.0
27/07:00am 7.8 6.4 5.3 84 1.1 SSW 2 6 1 3 1018.3 1018.2 0.0
27/06:30am 7.2 4.9 5.0 86 1.0 S 6 7 3 4 1018.0 1017.9 0.0
27/06:00am 7.4 5.1 4.9 84 1.1 S 6 7 3 4 1017.6 1017.5 0.0
27/05:30am 7.6 5.7 4.7 82 1.3 SSE 4 6 2 3 1017.4 1017.3 0.0
27/05:00am 8.3 5.9 5.4 82 1.3 SSE 7 9 4 5 1017.4 1017.3 0.0
27/04:30am 8.4 6.2 5.3 81 1.4 SSE 6 9 3 5 1017.2 1017.1 0.0
27/04:00am 8.8 6.6 5.4 79 1.5 SSE 6 9 3 5 1017.2 1017.1 0.0
27/03:30am 9.2 6.9 5.6 78 1.6 SSE 7 9 4 5 1017.4 1017.3 0.0
27/03:00am 9.4 6.7 5.8 78 1.6 S 9 11 5 6 1017.5 1017.4 0.0
27/02:30am 9.7 6.7 5.9 77 1.7 S 11 13 6 7 1017.7 1017.6 0.0
27/02:00am 10.3 7.3 5.9 74 2.0 S 11 13 6 7 1017.6 1017.5 0.0
27/01:30am 11.0 7.7 6.2 72 2.2 S 13 17 7 9 1017.7 1017.6 0.0
27/01:00am 11.3 8.0 6.2 71 2.4 S 13 15 7 8 1018.0 1017.9 0.0
27/12:30am 11.8 8.9 6.3 69 2.6 S 11 15 6 8 1018.1 1018.0 0.0
27/12:00am 12.9 9.5 6.0 63 3.3 SSE 13 19 7 10 1018.0 1017.9 0.0
 
Date/Time
CDT
Temp
°C
App
Temp
°C
Dew
Point
Rel
Hum
%
Delta-T
°C
Wind Press
QNH
hPa
Press
MSL
hPa
Rain
since 9 am
mm
Dir
 
Spd
km/h
Gust
km/h
Spd
kts
Gust
kts
26/11:30pm 13.4 9.3 6.0 61 3.5 S 17 22 9 12 1017.8 1017.7 0.0
26/11:00pm 13.8 9.3 5.9 59 3.8 S 19 24 10 13 1017.8 1017.7 0.0
26/10:30pm 14.4 9.9 6.0 57 4.0 S 19 24 10 13 1017.8 1017.7 0.0
26/10:00pm 14.6 10.8 5.9 56 4.2 S 15 20 8 11 1017.7 1017.6 0.0
26/09:30pm 16.1 13.0 5.4 49 5.1 SSE 11 17 6 9 1017.4 1017.3 0.0
26/09:00pm 16.3 13.1 5.3 48 5.2 SSE 11 17 6 9 1017.2 1017.1 0.0
26/08:30pm 17.4 13.0 5.0 44 5.9 SSE 17 22 9 12 1016.9 1016.8 0.0
26/08:00pm 18.4 13.6 4.9 41 6.5 SSE 19 28 10 15 1016.5 1016.4 0.0
26/07:30pm 19.4 13.1 4.0 36 7.3 SE 26 35 14 19 1016.2 1016.1 0.0
26/07:00pm 20.3 14.3 3.5 33 8.0 S 24 33 13 18 1015.7 1015.6 0.0
26/06:30pm 21.5 16.3 3.7 31 8.6 S 20 30 11 16 1015.4 1015.3 0.0
26/06:00pm 21.3 15.2 3.0 30 8.7 SE 24 35 13 19 1015.2 1015.1 0.0
26/05:30pm 21.6 15.9 4.7 33 8.3 SW 24 39 13 21 1015.2 1015.1 0.0
26/05:00pm 21.6 16.2 2.3 28 9.0 SSE 20 33 11 18 1015.5 1015.4 0.0
26/04:30pm 23.5 18.8 3.4 27 9.7 S 17 28 9 15 1015.5 1015.4 0.0
26/04:00pm 23.3 18.2 3.3 27 9.7 S 19 28 10 15 1015.6 1015.5 0.0
26/03:30pm 23.1 18.2 2.0 25 9.9 SSE 17 32 9 17 1015.7 1015.6 0.0
26/03:00pm 22.5 17.9 1.5 25 9.7 S 15 32 8 17 1015.9 1015.8 0.0
26/02:30pm 21.8 16.9 2.0 27 9.2 S 17 32 9 17 1016.2 1016.1 0.0
26/02:00pm 21.4 16.9 2.2 28 9.0 S 15 22 8 12 1016.5 1016.4 0.0
26/01:30pm 20.8 16.7 2.1 29 8.7 S 13 26 7 14 1016.7 1016.6 0.0
26/01:00pm 21.1 16.7 2.9 30 8.6 SSW 15 28 8 15 1017.1 1017.0 0.0
26/12:30pm 20.3 15.9 2.6 31 8.2 S 15 26 8 14 1017.4 1017.3 0.0
26/12:00pm 19.3 14.1 2.6 33 7.7 SSE 19 32 10 17 1017.7 1017.6 0.0
26/11:30am 19.7 15.0 3.4 34 7.7 S 17 35 9 19 1017.8 1017.7 0.0
26/11:00am 17.9 13.0 2.2 35 7.1 S 17 30 9 16 1018.1 1018.0 0.0
26/10:30am 17.5 13.7 3.8 40 6.4 S 13 20 7 11 1018.3 1018.2 0.0
26/10:00am 17.9 14.3 5.2 43 6.1 SE 13 20 7 11 1018.5 1018.4 0.0
26/09:30am 16.7 13.5 5.3 47 5.5 ESE 11 20 6 11 1018.5 1018.4 0.0
26/09:00am 16.1 13.2 6.5 53 4.7 SE 11 17 6 9 1018.6 1018.5 0.0
26/08:30am 15.1 13.3 7.9 62 3.6 SE 7 11 4 6 1018.6 1018.5 0.0
26/08:00am 13.1 12.8 8.6 74 2.3 CALM 0 4 0 2 1018.3 1018.2 0.0
26/07:30am 11.9 11.6 8.6 80 1.6 CALM 0 0 0 0 1018.1 1018.0 0.0
26/07:00am 10.7 9.2 8.3 85 1.2 W 6 6 3 3 1017.6 1017.5 0.0
26/06:30am 10.5 9.3 7.9 84 1.3 SSW 4 6 2 3 1017.2 1017.1 0.0
26/06:00am 10.5 9.0 7.0 79 1.7 SSE 4 6 2 3 1016.6 1016.5 0.0
26/05:30am 12.1 10.5 7.8 75 2.1 SSE 6 7 3 4 1016.4 1016.3 0.0
26/05:00am 11.8 10.7 8.3 79 1.7 SSE 4 6 2 3 1016.3 1016.2 0.0
26/04:30am 11.1 10.0 6.8 75 2.0 SSE 2 2 1 1 1016.0 1015.9 0.0
26/04:00am 12.6 11.7 7.7 72 2.4 SE 2 4 1 2 1015.5 1015.4 0.0
26/03:30am 13.0 11.4 7.9 71 2.5 SE 6 7 3 4 1015.4 1015.3 0.0
26/03:00am 13.0 11.4 8.1 72 2.4 S 6 7 3 4 1015.6 1015.5 0.0
26/02:30am 13.1 11.9 8.0 71 2.5 SW 4 4 2 2 1015.6 1015.5 0.0
26/02:00am 13.2 11.6 7.9 70 2.6 SW 6 7 3 4 1015.7 1015.6 0.0
26/01:30am 13.2 11.5 7.6 69 2.7 SSW 6 7 3 4 1015.7 1015.6 0.0
26/01:00am 13.3 11.1 7.7 69 2.8 S 9 13 5 7 1015.8 1015.7 0.0
26/12:30am 12.2 11.7 7.7 74 2.2 CALM 0 0 0 0 1015.8 1015.7 0.0
26/12:00am 11.8 11.0 8.1 78 1.8 SW 2 4 1 2 1015.7 1015.6 0.0
 
Date/Time
CDT
Temp
°C
App
Temp
°C
Dew
Point
Rel
Hum
%
Delta-T
°C
Wind Press
QNH
hPa
Press
MSL
hPa
Rain
since 9 am
mm
Dir
 
Spd
km/h
Gust
km/h
Spd
kts
Gust
kts
25/11:30pm 10.1 8.4 6.1 76 1.9 SSW 4 4 2 2 1015.7 1015.6 0.0
25/11:00pm 10.9 9.2 6.1 72 2.2 SSW 4 6 2 3 1015.6 1015.5 0.0
25/10:30pm 12.3 10.2 6.8 69 2.6 SSW 7 9 4 5 1015.5 1015.4 0.0
25/10:00pm 13.6 11.2 7.2 65 3.1 SSW 9 13 5 7 1015.3 1015.2 0.0
25/09:30pm 13.9 11.0 6.7 62 3.5 SW 11 15 6 8 1015.0 1014.9 0.0
25/09:00pm 15.1 11.9 6.7 57 4.1 SW 13 20 7 11 1014.6 1014.5 0.0
25/08:30pm 15.2 10.2 6.5 56 4.2 SSW 22 32 12 17 1014.4 1014.3 0.0
25/08:00pm 16.1 11.5 5.7 50 5.0 SSW 19 30 10 16 1014.1 1014.0 0.0
25/07:30pm 16.9 11.1 6.4 50 5.2 SSW 26 37 14 20 1013.8 1013.7 0.0
25/07:00pm 17.2 11.2 5.5 46 5.7 SSW 26 35 14 19 1013.6 1013.5 0.0
25/06:30pm 18.7 11.6 5.5 42 6.4 SW 32 39 17 21 1013.4 1013.3 0.0
25/06:00pm 18.0 12.3 6.5 47 5.7 SSW 26 39 14 21 1013.3 1013.2 0.0
25/05:30pm 19.2 13.2 7.0 45 6.2 SSW 28 43 15 23 1013.1 1013.0 0.0
25/05:00pm 20.2 12.9 4.3 35 7.7 SW 32 43 17 23 1013.0 1012.9 0.0
25/04:30pm 18.9 11.4 4.7 39 6.8 SW 33 46 18 25 1013.1 1013.0 0.0
25/04:00pm 19.8 12.2 5.8 40 6.9 SW 35 44 19 24 1012.9 1012.8 0.0
25/03:30pm 19.4 11.9 4.7 38 7.1 SW 33 44 18 24 1012.7 1012.6 0.0
25/03:00pm 19.8 12.8 3.9 35 7.6 SW 30 43 16 23 1012.5 1012.4 0.0
25/02:30pm 21.3 13.8 4.4 33 8.2 SW 33 46 18 25 1012.9 1012.8 0.0
25/02:00pm 20.0 12.5 4.5 36 7.5 SW 33 43 18 23 1013.0 1012.9 0.0
25/01:30pm 19.9 12.9 4.0 35 7.6 SW 30 39 16 21 1013.0 1012.9 0.0
25/01:00pm 19.2 13.2 5.3 40 6.8 SW 26 41 14 22 1013.2 1013.1 0.0
25/12:30pm 18.6 11.7 4.4 39 6.8 SW 30 43 16 23 1013.0 1012.9 0.0
25/12:00pm 19.3 12.6 3.9 36 7.3 SW 28 46 15 25 1012.8 1012.7 0.0
25/11:30am 18.0 10.1 4.2 40 6.5 SW 35 52 19 28 1012.7 1012.6 0.0
25/11:20am 18.3 11.5 5.2 42 6.3 SW 30 50 16 27 1012.5 1012.4 0.0
25/11:00am 18.7 12.0 3.7 37 7.1 SW 28 39 15 21 1012.4 1012.3 0.0
25/10:30am 18.6 12.3 5.8 43 6.3 SSW 28 37 15 20 1012.2 1012.1 0.0
25/10:00am 17.4 11.1 7.5 52 5.0 SW 30 41 16 22 1012.2 1012.1 0.0
25/09:30am 16.7 11.0 6.5 51 5.0 SW 26 37 14 20 1011.9 1011.8 0.0

Other Formats:

Comma delimited format used in spreadsheet applications
http://www.bom.gov.au/fwo/IDS60801/IDS60801.95815.axf

JavaScript Object Notation format (JSON) in row-major order
http://www.bom.gov.au/fwo/IDS60801/IDS60801.95815.json